sensor_id;sensor_type;location;lat;lon;timestamp;P1;durP1;ratioP1;P2;durP2;ratioP2
29954;SDS011;68448;51.188;6.868;2023-04-12T00:00:41;7.20;;;2.50;;
29954;SDS011;68448;51.188;6.868;2023-04-12T00:03:08;6.33;;;2.30;;
29954;SDS011;68448;51.188;6.868;2023-04-12T00:05:36;5.53;;;2.23;;
29954;SDS011;68448;51.188;6.868;2023-04-12T00:08:03;7.77;;;2.80;;
29954;SDS011;68448;51.188;6.868;2023-04-12T00:10:30;4.47;;;2.13;;
29954;SDS011;68448;51.188;6.868;2023-04-12T00:12:58;6.60;;;2.67;;
29954;SDS011;68448;51.188;6.868;2023-04-12T00:15:26;3.90;;;2.20;;
29954;SDS011;68448;51.188;6.868;2023-04-12T00:17:53;7.43;;;2.40;;
29954;SDS011;68448;51.188;6.868;2023-04-12T00:20:20;11.33;;;2.50;;
29954;SDS011;68448;51.188;6.868;2023-04-12T00:22:47;11.20;;;2.87;;
29954;SDS011;68448;51.188;6.868;2023-04-12T00:25:14;6.77;;;2.17;;
29954;SDS011;68448;51.188;6.868;2023-04-12T00:27:41;10.70;;;2.80;;
29954;SDS011;68448;51.188;6.868;2023-04-12T00:30:10;9.23;;;3.00;;
29954;SDS011;68448;51.188;6.868;2023-04-12T00:32:37;3.87;;;2.07;;
29954;SDS011;68448;51.188;6.868;2023-04-12T00:35:05;10.73;;;2.73;;
29954;SDS011;68448;51.188;6.868;2023-04-12T00:37:32;7.10;;;2.80;;
29954;SDS011;68448;51.188;6.868;2023-04-12T00:39:59;6.23;;;2.47;;
29954;SDS011;68448;51.188;6.868;2023-04-12T00:42:28;4.27;;;2.60;;
29954;SDS011;68448;51.188;6.868;2023-04-12T00:44:55;5.13;;;2.67;;
29954;SDS011;68448;51.188;6.868;2023-04-12T00:47:23;7.20;;;3.07;;
29954;SDS011;68448;51.188;6.868;2023-04-12T00:49:51;6.37;;;2.90;;
29954;SDS011;68448;51.188;6.868;2023-04-12T00:52:18;7.73;;;3.37;;
29954;SDS011;68448;51.188;6.868;2023-04-12T00:54:45;7.53;;;2.80;;
29954;SDS011;68448;51.188;6.868;2023-04-12T00:57:12;4.77;;;2.77;;
29954;SDS011;68448;51.188;6.868;2023-04-12T00:59:40;4.00;;;2.53;;
29954;SDS011;68448;51.188;6.868;2023-04-12T01:02:07;6.67;;;3.27;;
29954;SDS011;68448;51.188;6.868;2023-04-12T01:04:36;7.80;;;3.77;;
29954;SDS011;68448;51.188;6.868;2023-04-12T01:07:06;7.90;;;2.70;;
29954;SDS011;68448;51.188;6.868;2023-04-12T01:09:37;9.47;;;3.10;;
29954;SDS011;68448;51.188;6.868;2023-04-12T01:12:07;9.50;;;3.40;;
29954;SDS011;68448;51.188;6.868;2023-04-12T01:14:43;7.90;;;2.73;;
29954;SDS011;68448;51.188;6.868;2023-04-12T01:17:15;11.10;;;3.37;;
29954;SDS011;68448;51.188;6.868;2023-04-12T01:19:52;8.43;;;2.97;;
29954;SDS011;68448;51.188;6.868;2023-04-12T01:22:27;8.23;;;3.27;;
29954;SDS011;68448;51.188;6.868;2023-04-12T01:25:00;12.10;;;3.40;;
29954;SDS011;68448;51.188;6.868;2023-04-12T01:27:33;10.90;;;3.70;;
29954;SDS011;68448;51.188;6.868;2023-04-12T01:30:05;7.60;;;3.50;;
29954;SDS011;68448;51.188;6.868;2023-04-12T01:32:33;6.47;;;3.10;;
29954;SDS011;68448;51.188;6.868;2023-04-12T01:35:02;6.40;;;3.00;;
29954;SDS011;68448;51.188;6.868;2023-04-12T01:37:30;5.70;;;2.87;;
29954;SDS011;68448;51.188;6.868;2023-04-12T01:39:57;7.83;;;3.70;;
29954;SDS011;68448;51.188;6.868;2023-04-12T01:42:24;11.33;;;2.60;;
29954;SDS011;68448;51.188;6.868;2023-04-12T01:44:55;5.80;;;2.83;;
29954;SDS011;68448;51.188;6.868;2023-04-12T01:47:22;6.17;;;2.40;;
29954;SDS011;68448;51.188;6.868;2023-04-12T01:49:54;4.53;;;2.23;;
29954;SDS011;68448;51.188;6.868;2023-04-12T01:52:22;7.83;;;3.00;;
29954;SDS011;68448;51.188;6.868;2023-04-12T01:54:53;5.47;;;2.20;;
29954;SDS011;68448;51.188;6.868;2023-04-12T01:57:23;8.63;;;3.40;;
29954;SDS011;68448;51.188;6.868;2023-04-12T01:59:51;7.07;;;3.07;;
29954;SDS011;68448;51.188;6.868;2023-04-12T02:02:20;9.30;;;3.27;;
29954;SDS011;68448;51.188;6.868;2023-04-12T02:04:48;7.03;;;2.93;;
29954;SDS011;68448;51.188;6.868;2023-04-12T02:07:15;3.60;;;2.50;;
29954;SDS011;68448;51.188;6.868;2023-04-12T02:09:43;7.07;;;2.50;;
29954;SDS011;68448;51.188;6.868;2023-04-12T02:12:10;13.53;;;3.60;;
29954;SDS011;68448;51.188;6.868;2023-04-12T02:14:37;4.93;;;2.47;;
29954;SDS011;68448;51.188;6.868;2023-04-12T02:17:04;10.30;;;3.50;;
29954;SDS011;68448;51.188;6.868;2023-04-12T02:19:33;7.07;;;3.17;;
29954;SDS011;68448;51.188;6.868;2023-04-12T02:22:00;15.83;;;4.37;;
29954;SDS011;68448;51.188;6.868;2023-04-12T02:24:27;6.43;;;2.50;;
29954;SDS011;68448;51.188;6.868;2023-04-12T02:26:55;4.53;;;2.30;;
29954;SDS011;68448;51.188;6.868;2023-04-12T02:29:23;9.77;;;2.70;;
29954;SDS011;68448;51.188;6.868;2023-04-12T02:31:50;4.20;;;2.33;;
29954;SDS011;68448;51.188;6.868;2023-04-12T02:34:19;6.97;;;2.57;;
29954;SDS011;68448;51.188;6.868;2023-04-12T02:36:53;10.73;;;3.00;;
29954;SDS011;68448;51.188;6.868;2023-04-12T02:39:21;5.33;;;2.37;;
29954;SDS011;68448;51.188;6.868;2023-04-12T02:41:50;4.73;;;2.53;;
29954;SDS011;68448;51.188;6.868;2023-04-12T02:44:17;6.20;;;2.80;;
29954;SDS011;68448;51.188;6.868;2023-04-12T02:46:55;4.03;;;2.57;;
29954;SDS011;68448;51.188;6.868;2023-04-12T02:49:22;6.60;;;2.90;;
29954;SDS011;68448;51.188;6.868;2023-04-12T02:51:50;13.23;;;3.50;;
29954;SDS011;68448;51.188;6.868;2023-04-12T02:54:23;7.33;;;3.30;;
29954;SDS011;68448;51.188;6.868;2023-04-12T02:56:53;4.90;;;2.70;;
29954;SDS011;68448;51.188;6.868;2023-04-12T02:59:36;7.67;;;2.50;;
29954;SDS011;68448;51.188;6.868;2023-04-12T03:02:10;6.00;;;1.97;;
29954;SDS011;68448;51.188;6.868;2023-04-12T03:04:38;4.13;;;2.17;;
29954;SDS011;68448;51.188;6.868;2023-04-12T03:07:10;2.97;;;2.10;;
29954;SDS011;68448;51.188;6.868;2023-04-12T03:09:45;9.57;;;2.63;;
29954;SDS011;68448;51.188;6.868;2023-04-12T03:12:14;4.03;;;2.40;;
29954;SDS011;68448;51.188;6.868;2023-04-12T03:14:51;6.90;;;2.30;;
29954;SDS011;68448;51.188;6.868;2023-04-12T03:17:22;5.70;;;3.00;;
29954;SDS011;68448;51.188;6.868;2023-04-12T03:19:51;6.80;;;2.70;;
29954;SDS011;68448;51.188;6.868;2023-04-12T03:22:19;8.40;;;3.10;;
29954;SDS011;68448;51.188;6.868;2023-04-12T03:24:52;5.07;;;2.03;;
29954;SDS011;68448;51.188;6.868;2023-04-12T03:27:20;12.07;;;3.10;;
29954;SDS011;68448;51.188;6.868;2023-04-12T03:29:50;6.03;;;2.67;;
29954;SDS011;68448;51.188;6.868;2023-04-12T03:32:21;5.73;;;2.40;;
29954;SDS011;68448;51.188;6.868;2023-04-12T03:34:48;4.77;;;2.17;;
29954;SDS011;68448;51.188;6.868;2023-04-12T03:37:21;4.23;;;2.40;;
29954;SDS011;68448;51.188;6.868;2023-04-12T03:39:49;9.10;;;2.60;;
29954;SDS011;68448;51.188;6.868;2023-04-12T03:42:22;5.57;;;2.30;;
29954;SDS011;68448;51.188;6.868;2023-04-12T03:45:06;6.07;;;2.23;;
29954;SDS011;68448;51.188;6.868;2023-04-12T03:47:33;12.57;;;2.57;;
29954;SDS011;68448;51.188;6.868;2023-04-12T03:50:02;6.77;;;2.20;;
29954;SDS011;68448;51.188;6.868;2023-04-12T03:52:37;7.07;;;1.97;;
29954;SDS011;68448;51.188;6.868;2023-04-12T03:55:06;3.80;;;2.60;;
29954;SDS011;68448;51.188;6.868;2023-04-12T03:57:36;4.90;;;2.00;;
29954;SDS011;68448;51.188;6.868;2023-04-12T04:00:05;4.03;;;2.00;;
29954;SDS011;68448;51.188;6.868;2023-04-12T04:02:43;4.07;;;2.43;;
29954;SDS011;68448;51.188;6.868;2023-04-12T04:05:10;3.17;;;1.70;;
29954;SDS011;68448;51.188;6.868;2023-04-12T04:07:38;6.53;;;2.07;;
29954;SDS011;68448;51.188;6.868;2023-04-12T04:10:05;4.60;;;2.10;;
29954;SDS011;68448;51.188;6.868;2023-04-12T04:12:38;5.00;;;2.10;;
29954;SDS011;68448;51.188;6.868;2023-04-12T04:15:08;8.63;;;2.10;;
29954;SDS011;68448;51.188;6.868;2023-04-12T04:17:35;6.27;;;2.47;;
29954;SDS011;68448;51.188;6.868;2023-04-12T04:20:03;5.93;;;2.17;;
29954;SDS011;68448;51.188;6.868;2023-04-12T04:22:33;3.40;;;2.13;;
29954;SDS011;68448;51.188;6.868;2023-04-12T04:25:02;5.43;;;2.30;;
29954;SDS011;68448;51.188;6.868;2023-04-12T04:27:32;3.00;;;1.90;;
29954;SDS011;68448;51.188;6.868;2023-04-12T04:30:02;5.37;;;2.53;;
29954;SDS011;68448;51.188;6.868;2023-04-12T04:32:29;7.63;;;2.63;;
29954;SDS011;68448;51.188;6.868;2023-04-12T04:34:57;7.77;;;2.50;;
29954;SDS011;68448;51.188;6.868;2023-04-12T04:37:29;3.70;;;1.97;;
29954;SDS011;68448;51.188;6.868;2023-04-12T04:39:57;8.00;;;2.60;;
29954;SDS011;68448;51.188;6.868;2023-04-12T04:42:24;5.50;;;2.63;;
29954;SDS011;68448;51.188;6.868;2023-04-12T04:45:01;4.93;;;2.47;;
29954;SDS011;68448;51.188;6.868;2023-04-12T04:47:34;13.97;;;2.87;;
29954;SDS011;68448;51.188;6.868;2023-04-12T04:50:01;8.47;;;2.50;;
29954;SDS011;68448;51.188;6.868;2023-04-12T04:52:28;3.00;;;2.33;;
29954;SDS011;68448;51.188;6.868;2023-04-12T04:55:00;7.50;;;3.20;;
29954;SDS011;68448;51.188;6.868;2023-04-12T04:57:34;5.93;;;2.63;;
29954;SDS011;68448;51.188;6.868;2023-04-12T05:00:03;7.10;;;3.00;;
29954;SDS011;68448;51.188;6.868;2023-04-12T05:02:32;3.80;;;2.73;;
29954;SDS011;68448;51.188;6.868;2023-04-12T05:05:00;8.87;;;2.70;;
29954;SDS011;68448;51.188;6.868;2023-04-12T05:07:27;7.33;;;3.80;;
29954;SDS011;68448;51.188;6.868;2023-04-12T05:09:54;5.73;;;3.30;;
29954;SDS011;68448;51.188;6.868;2023-04-12T05:12:21;5.40;;;2.70;;
29954;SDS011;68448;51.188;6.868;2023-04-12T05:14:52;3.17;;;2.87;;
29954;SDS011;68448;51.188;6.868;2023-04-12T05:17:38;5.10;;;2.80;;
29954;SDS011;68448;51.188;6.868;2023-04-12T05:20:05;6.67;;;2.83;;
29954;SDS011;68448;51.188;6.868;2023-04-12T05:22:33;4.80;;;2.57;;
29954;SDS011;68448;51.188;6.868;2023-04-12T05:25:00;8.07;;;2.80;;
29954;SDS011;68448;51.188;6.868;2023-04-12T05:27:30;6.57;;;3.50;;
29954;SDS011;68448;51.188;6.868;2023-04-12T05:29:58;8.23;;;2.90;;
29954;SDS011;68448;51.188;6.868;2023-04-12T05:32:25;6.60;;;2.93;;
29954;SDS011;68448;51.188;6.868;2023-04-12T05:34:54;7.97;;;3.23;;
29954;SDS011;68448;51.188;6.868;2023-04-12T05:37:22;10.67;;;3.17;;
29954;SDS011;68448;51.188;6.868;2023-04-12T05:39:49;5.13;;;3.10;;
29954;SDS011;68448;51.188;6.868;2023-04-12T05:42:17;7.83;;;3.33;;
29954;SDS011;68448;51.188;6.868;2023-04-12T05:44:44;4.10;;;2.83;;
29954;SDS011;68448;51.188;6.868;2023-04-12T05:47:15;7.43;;;3.37;;
29954;SDS011;68448;51.188;6.868;2023-04-12T05:49:42;15.93;;;4.63;;
29954;SDS011;68448;51.188;6.868;2023-04-12T05:52:12;5.93;;;3.50;;
29954;SDS011;68448;51.188;6.868;2023-04-12T05:54:39;7.47;;;3.63;;
29954;SDS011;68448;51.188;6.868;2023-04-12T05:57:10;7.40;;;2.67;;
29954;SDS011;68448;51.188;6.868;2023-04-12T05:59:37;4.23;;;2.80;;
29954;SDS011;68448;51.188;6.868;2023-04-12T06:02:04;7.73;;;2.97;;
29954;SDS011;68448;51.188;6.868;2023-04-12T06:04:31;14.77;;;3.10;;
29954;SDS011;68448;51.188;6.868;2023-04-12T06:07:17;6.43;;;3.67;;
29954;SDS011;68448;51.188;6.868;2023-04-12T06:09:44;3.20;;;2.53;;
29954;SDS011;68448;51.188;6.868;2023-04-12T06:12:11;6.90;;;2.97;;
29954;SDS011;68448;51.188;6.868;2023-04-12T06:14:38;8.60;;;3.63;;
29954;SDS011;68448;51.188;6.868;2023-04-12T06:17:06;4.63;;;2.90;;
29954;SDS011;68448;51.188;6.868;2023-04-12T06:19:33;4.50;;;3.00;;
29954;SDS011;68448;51.188;6.868;2023-04-12T06:22:00;6.90;;;2.90;;
29954;SDS011;68448;51.188;6.868;2023-04-12T06:24:30;10.47;;;3.80;;
29954;SDS011;68448;51.188;6.868;2023-04-12T06:26:58;4.60;;;3.50;;
29954;SDS011;68448;51.188;6.868;2023-04-12T06:29:25;4.50;;;2.70;;
29954;SDS011;68448;51.188;6.868;2023-04-12T06:31:52;5.43;;;2.80;;
29954;SDS011;68448;51.188;6.868;2023-04-12T06:34:19;4.37;;;3.13;;
29954;SDS011;68448;51.188;6.868;2023-04-12T06:36:47;7.13;;;3.23;;
29954;SDS011;68448;51.188;6.868;2023-04-12T06:39:14;10.17;;;3.13;;
29954;SDS011;68448;51.188;6.868;2023-04-12T06:41:43;4.73;;;2.83;;
29954;SDS011;68448;51.188;6.868;2023-04-12T06:44:10;4.97;;;3.03;;
29954;SDS011;68448;51.188;6.868;2023-04-12T06:46:37;3.47;;;2.87;;
29954;SDS011;68448;51.188;6.868;2023-04-12T06:49:05;4.53;;;3.10;;
29954;SDS011;68448;51.188;6.868;2023-04-12T06:51:32;4.90;;;3.17;;
29954;SDS011;68448;51.188;6.868;2023-04-12T06:53:59;5.47;;;3.60;;
29954;SDS011;68448;51.188;6.868;2023-04-12T06:56:26;4.37;;;3.03;;
29954;SDS011;68448;51.188;6.868;2023-04-12T06:58:55;4.60;;;3.37;;
29954;SDS011;68448;51.188;6.868;2023-04-12T07:01:22;5.20;;;2.93;;
29954;SDS011;68448;51.188;6.868;2023-04-12T07:03:49;5.27;;;3.47;;
29954;SDS011;68448;51.188;6.868;2023-04-12T07:06:17;6.77;;;4.17;;
29954;SDS011;68448;51.188;6.868;2023-04-12T07:08:51;8.27;;;3.20;;
29954;SDS011;68448;51.188;6.868;2023-04-12T07:11:18;5.70;;;3.30;;
29954;SDS011;68448;51.188;6.868;2023-04-12T07:13:47;8.57;;;4.03;;
29954;SDS011;68448;51.188;6.868;2023-04-12T07:16:15;4.23;;;3.20;;
29954;SDS011;68448;51.188;6.868;2023-04-12T07:18:42;7.30;;;3.43;;
29954;SDS011;68448;51.188;6.868;2023-04-12T07:21:09;3.60;;;2.60;;
29954;SDS011;68448;51.188;6.868;2023-04-12T07:23:37;6.23;;;3.50;;
29954;SDS011;68448;51.188;6.868;2023-04-12T07:26:04;4.63;;;3.67;;
29954;SDS011;68448;51.188;6.868;2023-04-12T07:28:31;7.83;;;3.80;;
29954;SDS011;68448;51.188;6.868;2023-04-12T07:30:58;5.40;;;3.00;;
29954;SDS011;68448;51.188;6.868;2023-04-12T07:33:27;4.97;;;3.20;;
29954;SDS011;68448;51.188;6.868;2023-04-12T07:35:54;4.33;;;3.00;;
29954;SDS011;68448;51.188;6.868;2023-04-12T07:38:21;3.73;;;2.47;;
29954;SDS011;68448;51.188;6.868;2023-04-12T07:40:48;3.57;;;2.70;;
29954;SDS011;68448;51.188;6.868;2023-04-12T07:43:15;4.43;;;2.90;;
29954;SDS011;68448;51.188;6.868;2023-04-12T07:45:42;7.00;;;2.60;;
29954;SDS011;68448;51.188;6.868;2023-04-12T07:48:09;4.73;;;2.80;;
29954;SDS011;68448;51.188;6.868;2023-04-12T07:50:38;5.20;;;2.93;;
29954;SDS011;68448;51.188;6.868;2023-04-12T07:55:47;7.90;;;2.90;;
29954;SDS011;68448;51.188;6.868;2023-04-12T07:58:14;6.30;;;3.27;;
29954;SDS011;68448;51.188;6.868;2023-04-12T08:00:42;3.77;;;2.90;;
29954;SDS011;68448;51.188;6.868;2023-04-12T08:03:10;3.63;;;2.87;;
29954;SDS011;68448;51.188;6.868;2023-04-12T08:05:39;3.77;;;2.97;;
29954;SDS011;68448;51.188;6.868;2023-04-12T08:08:06;3.50;;;2.70;;
29954;SDS011;68448;51.188;6.868;2023-04-12T08:10:33;5.10;;;2.67;;
29954;SDS011;68448;51.188;6.868;2023-04-12T08:13:00;4.53;;;2.50;;
29954;SDS011;68448;51.188;6.868;2023-04-12T08:15:28;7.57;;;3.37;;
29954;SDS011;68448;51.188;6.868;2023-04-12T08:17:55;3.53;;;2.87;;
29954;SDS011;68448;51.188;6.868;2023-04-12T08:20:22;5.20;;;2.90;;
29954;SDS011;68448;51.188;6.868;2023-04-12T08:22:50;4.37;;;2.70;;
29954;SDS011;68448;51.188;6.868;2023-04-12T08:25:17;4.93;;;3.30;;
29954;SDS011;68448;51.188;6.868;2023-04-12T08:27:44;4.80;;;3.30;;
29954;SDS011;68448;51.188;6.868;2023-04-12T08:30:12;4.30;;;3.50;;
29954;SDS011;68448;51.188;6.868;2023-04-12T08:32:39;5.47;;;3.83;;
29954;SDS011;68448;51.188;6.868;2023-04-12T08:35:06;4.80;;;3.97;;
29954;SDS011;68448;51.188;6.868;2023-04-12T08:37:34;6.03;;;3.40;;
29954;SDS011;68448;51.188;6.868;2023-04-12T08:40:03;7.43;;;4.03;;
29954;SDS011;68448;51.188;6.868;2023-04-12T08:42:31;4.40;;;3.23;;
29954;SDS011;68448;51.188;6.868;2023-04-12T08:45:03;5.17;;;3.50;;
29954;SDS011;68448;51.188;6.868;2023-04-12T08:47:30;5.73;;;3.70;;
29954;SDS011;68448;51.188;6.868;2023-04-12T08:49:59;6.00;;;4.10;;
29954;SDS011;68448;51.188;6.868;2023-04-12T08:52:26;6.83;;;3.73;;
29954;SDS011;68448;51.188;6.868;2023-04-12T08:54:53;3.70;;;2.97;;
29954;SDS011;68448;51.188;6.868;2023-04-12T08:57:22;8.87;;;3.20;;
29954;SDS011;68448;51.188;6.868;2023-04-12T08:59:49;4.60;;;3.80;;
29954;SDS011;68448;51.188;6.868;2023-04-12T09:02:18;4.73;;;3.43;;
29954;SDS011;68448;51.188;6.868;2023-04-12T09:04:48;4.00;;;3.33;;
29954;SDS011;68448;51.188;6.868;2023-04-12T09:07:16;4.10;;;3.47;;
29954;SDS011;68448;51.188;6.868;2023-04-12T09:09:43;3.40;;;3.00;;
29954;SDS011;68448;51.188;6.868;2023-04-12T09:12:10;5.57;;;3.27;;
29954;SDS011;68448;51.188;6.868;2023-04-12T09:14:39;5.07;;;3.97;;
29954;SDS011;68448;51.188;6.868;2023-04-12T09:17:18;4.03;;;3.37;;
29954;SDS011;68448;51.188;6.868;2023-04-12T09:19:46;7.40;;;3.57;;
29954;SDS011;68448;51.188;6.868;2023-04-12T09:22:13;4.90;;;3.87;;
29954;SDS011;68448;51.188;6.868;2023-04-12T09:24:44;4.17;;;3.37;;
29954;SDS011;68448;51.188;6.868;2023-04-12T09:27:11;4.70;;;3.23;;
29954;SDS011;68448;51.188;6.868;2023-04-12T09:29:40;3.97;;;3.30;;
29954;SDS011;68448;51.188;6.868;2023-04-12T09:32:07;6.53;;;3.03;;
29954;SDS011;68448;51.188;6.868;2023-04-12T09:34:35;4.83;;;3.20;;
29954;SDS011;68448;51.188;6.868;2023-04-12T09:37:11;3.53;;;3.23;;
29954;SDS011;68448;51.188;6.868;2023-04-12T09:39:38;3.77;;;3.27;;
29954;SDS011;68448;51.188;6.868;2023-04-12T09:42:06;4.10;;;3.20;;
29954;SDS011;68448;51.188;6.868;2023-04-12T09:44:52;4.47;;;2.97;;
29954;SDS011;68448;51.188;6.868;2023-04-12T09:47:19;4.20;;;3.10;;
29954;SDS011;68448;51.188;6.868;2023-04-12T09:49:46;3.73;;;3.20;;
29954;SDS011;68448;51.188;6.868;2023-04-12T09:52:13;7.40;;;3.20;;
29954;SDS011;68448;51.188;6.868;2023-04-12T09:54:41;4.10;;;3.67;;
29954;SDS011;68448;51.188;6.868;2023-04-12T09:57:08;8.60;;;5.80;;
29954;SDS011;68448;51.188;6.868;2023-04-12T09:59:36;4.27;;;3.67;;
29954;SDS011;68448;51.188;6.868;2023-04-12T10:02:06;4.63;;;3.73;;
29954;SDS011;68448;51.188;6.868;2023-04-12T10:04:38;3.60;;;3.30;;
29954;SDS011;68448;51.188;6.868;2023-04-12T10:07:05;8.10;;;4.40;;
29954;SDS011;68448;51.188;6.868;2023-04-12T10:09:33;3.67;;;3.20;;
29954;SDS011;68448;51.188;6.868;2023-04-12T10:12:00;7.50;;;4.07;;
29954;SDS011;68448;51.188;6.868;2023-04-12T10:14:28;3.77;;;3.47;;
29954;SDS011;68448;51.188;6.868;2023-04-12T10:16:56;4.60;;;4.20;;
29954;SDS011;68448;51.188;6.868;2023-04-12T10:19:25;5.03;;;3.23;;
29954;SDS011;68448;51.188;6.868;2023-04-12T10:21:53;3.10;;;2.90;;
29954;SDS011;68448;51.188;6.868;2023-04-12T10:24:20;4.67;;;2.87;;
29954;SDS011;68448;51.188;6.868;2023-04-12T10:26:47;4.63;;;3.13;;
29954;SDS011;68448;51.188;6.868;2023-04-12T10:29:21;4.60;;;3.70;;
29954;SDS011;68448;51.188;6.868;2023-04-12T10:31:48;3.80;;;3.27;;
29954;SDS011;68448;51.188;6.868;2023-04-12T10:34:16;6.80;;;3.70;;
29954;SDS011;68448;51.188;6.868;2023-04-12T10:36:51;4.00;;;3.70;;
29954;SDS011;68448;51.188;6.868;2023-04-12T10:39:19;4.07;;;3.50;;
29954;SDS011;68448;51.188;6.868;2023-04-12T10:42:19;5.60;;;3.60;;
29954;SDS011;68448;51.188;6.868;2023-04-12T10:44:46;3.50;;;3.20;;
29954;SDS011;68448;51.188;6.868;2023-04-12T10:47:13;4.53;;;3.77;;
29954;SDS011;68448;51.188;6.868;2023-04-12T10:49:41;6.63;;;3.60;;
29954;SDS011;68448;51.188;6.868;2023-04-12T10:52:29;2.53;;;2.17;;
29954;SDS011;68448;51.188;6.868;2023-04-12T10:54:56;2.27;;;2.03;;
29954;SDS011;68448;51.188;6.868;2023-04-12T10:57:40;2.90;;;1.97;;
29954;SDS011;68448;51.188;6.868;2023-04-12T11:00:07;2.20;;;1.47;;
29954;SDS011;68448;51.188;6.868;2023-04-12T11:02:35;1.80;;;1.67;;
29954;SDS011;68448;51.188;6.868;2023-04-12T11:05:22;2.63;;;1.80;;
29954;SDS011;68448;51.188;6.868;2023-04-12T11:07:57;3.80;;;2.47;;
29954;SDS011;68448;51.188;6.868;2023-04-12T11:10:54;2.60;;;2.40;;
29954;SDS011;68448;51.188;6.868;2023-04-12T11:13:33;3.00;;;2.53;;
29954;SDS011;68448;51.188;6.868;2023-04-12T11:16:00;5.33;;;3.10;;
29954;SDS011;68448;51.188;6.868;2023-04-12T11:18:27;4.00;;;3.60;;
29954;SDS011;68448;51.188;6.868;2023-04-12T11:20:55;9.23;;;4.00;;
29954;SDS011;68448;51.188;6.868;2023-04-12T11:23:25;6.17;;;3.20;;
29954;SDS011;68448;51.188;6.868;2023-04-12T11:25:52;3.87;;;3.53;;
29954;SDS011;68448;51.188;6.868;2023-04-12T11:28:19;6.50;;;3.57;;
29954;SDS011;68448;51.188;6.868;2023-04-12T11:30:55;7.50;;;3.53;;
29954;SDS011;68448;51.188;6.868;2023-04-12T11:33:29;4.57;;;3.70;;
29954;SDS011;68448;51.188;6.868;2023-04-12T11:35:56;9.00;;;4.40;;
29954;SDS011;68448;51.188;6.868;2023-04-12T11:38:25;4.83;;;3.20;;
29954;SDS011;68448;51.188;6.868;2023-04-12T11:40:52;5.30;;;3.00;;
29954;SDS011;68448;51.188;6.868;2023-04-12T11:43:19;5.43;;;2.80;;
29954;SDS011;68448;51.188;6.868;2023-04-12T11:45:46;4.20;;;3.80;;
29954;SDS011;68448;51.188;6.868;2023-04-12T11:48:14;7.10;;;3.50;;
29954;SDS011;68448;51.188;6.868;2023-04-12T11:50:41;4.40;;;3.00;;
29954;SDS011;68448;51.188;6.868;2023-04-12T11:53:09;5.33;;;2.97;;
29954;SDS011;68448;51.188;6.868;2023-04-12T11:55:37;4.73;;;2.67;;
29954;SDS011;68448;51.188;6.868;2023-04-12T11:58:05;4.87;;;2.57;;
29954;SDS011;68448;51.188;6.868;2023-04-12T12:00:32;4.20;;;2.80;;
29954;SDS011;68448;51.188;6.868;2023-04-12T12:02:59;5.10;;;2.63;;
29954;SDS011;68448;51.188;6.868;2023-04-12T12:05:33;3.90;;;3.30;;
29954;SDS011;68448;51.188;6.868;2023-04-12T12:08:03;9.10;;;2.93;;
29954;SDS011;68448;51.188;6.868;2023-04-12T12:10:30;3.17;;;2.53;;
29954;SDS011;68448;51.188;6.868;2023-04-12T12:13:18;3.80;;;2.73;;
29954;SDS011;68448;51.188;6.868;2023-04-12T12:15:45;6.13;;;3.00;;
29954;SDS011;68448;51.188;6.868;2023-04-12T12:18:12;3.80;;;3.00;;
29954;SDS011;68448;51.188;6.868;2023-04-12T12:20:40;4.50;;;2.57;;
29954;SDS011;68448;51.188;6.868;2023-04-12T12:23:07;5.47;;;2.70;;
29954;SDS011;68448;51.188;6.868;2023-04-12T12:25:34;6.67;;;2.50;;
29954;SDS011;68448;51.188;6.868;2023-04-12T12:28:02;3.43;;;2.40;;
29954;SDS011;68448;51.188;6.868;2023-04-12T12:30:30;3.30;;;2.13;;
29954;SDS011;68448;51.188;6.868;2023-04-12T12:32:57;6.37;;;2.87;;
29954;SDS011;68448;51.188;6.868;2023-04-12T12:35:24;5.90;;;2.93;;
29954;SDS011;68448;51.188;6.868;2023-04-12T12:37:52;4.20;;;2.50;;
29954;SDS011;68448;51.188;6.868;2023-04-12T12:40:26;5.80;;;2.87;;
29954;SDS011;68448;51.188;6.868;2023-04-12T12:42:54;5.23;;;2.47;;
29954;SDS011;68448;51.188;6.868;2023-04-12T12:45:22;5.17;;;2.77;;
29954;SDS011;68448;51.188;6.868;2023-04-12T12:47:51;7.50;;;3.47;;
29954;SDS011;68448;51.188;6.868;2023-04-12T12:50:20;4.60;;;2.70;;
29954;SDS011;68448;51.188;6.868;2023-04-12T12:52:50;6.80;;;3.20;;
29954;SDS011;68448;51.188;6.868;2023-04-12T12:55:17;8.07;;;3.03;;
29954;SDS011;68448;51.188;6.868;2023-04-12T12:57:44;7.90;;;2.70;;
29954;SDS011;68448;51.188;6.868;2023-04-12T13:00:31;7.10;;;3.13;;
29954;SDS011;68448;51.188;6.868;2023-04-12T13:03:00;9.40;;;3.30;;
29954;SDS011;68448;51.188;6.868;2023-04-12T13:05:28;10.00;;;3.20;;
29954;SDS011;68448;51.188;6.868;2023-04-12T13:07:55;5.23;;;2.10;;
29954;SDS011;68448;51.188;6.868;2023-04-12T13:10:22;12.93;;;3.27;;
29954;SDS011;68448;51.188;6.868;2023-04-12T13:12:49;8.87;;;2.60;;
29954;SDS011;68448;51.188;6.868;2023-04-12T13:15:16;7.90;;;2.67;;
29954;SDS011;68448;51.188;6.868;2023-04-12T13:17:50;5.97;;;2.53;;
29954;SDS011;68448;51.188;6.868;2023-04-12T13:20:19;6.77;;;3.30;;
29954;SDS011;68448;51.188;6.868;2023-04-12T13:22:46;9.13;;;2.67;;
29954;SDS011;68448;51.188;6.868;2023-04-12T13:25:13;14.13;;;2.57;;
29954;SDS011;68448;51.188;6.868;2023-04-12T13:27:40;4.67;;;2.63;;
29954;SDS011;68448;51.188;6.868;2023-04-12T13:30:08;8.53;;;2.67;;
29954;SDS011;68448;51.188;6.868;2023-04-12T13:32:35;10.70;;;3.37;;
29954;SDS011;68448;51.188;6.868;2023-04-12T13:35:03;10.53;;;3.50;;
29954;SDS011;68448;51.188;6.868;2023-04-12T13:37:32;6.83;;;2.70;;
29954;SDS011;68448;51.188;6.868;2023-04-12T13:39:59;10.40;;;3.40;;
29954;SDS011;68448;51.188;6.868;2023-04-12T13:42:26;7.30;;;2.70;;
29954;SDS011;68448;51.188;6.868;2023-04-12T13:44:54;8.30;;;2.70;;
29954;SDS011;68448;51.188;6.868;2023-04-12T13:47:21;9.57;;;2.73;;
29954;SDS011;68448;51.188;6.868;2023-04-12T13:49:48;9.17;;;2.70;;
29954;SDS011;68448;51.188;6.868;2023-04-12T13:52:15;6.10;;;2.37;;
29954;SDS011;68448;51.188;6.868;2023-04-12T13:54:44;6.67;;;2.40;;
29954;SDS011;68448;51.188;6.868;2023-04-12T13:57:12;7.70;;;3.23;;
29954;SDS011;68448;51.188;6.868;2023-04-12T13:59:39;6.40;;;3.40;;
29954;SDS011;68448;51.188;6.868;2023-04-12T14:02:06;15.53;;;3.50;;
29954;SDS011;68448;51.188;6.868;2023-04-12T14:04:33;12.70;;;3.27;;
29954;SDS011;68448;51.188;6.868;2023-04-12T14:07:00;11.37;;;2.70;;
29954;SDS011;68448;51.188;6.868;2023-04-12T14:09:28;12.73;;;3.40;;
29954;SDS011;68448;51.188;6.868;2023-04-12T14:11:57;9.10;;;2.40;;
29954;SDS011;68448;51.188;6.868;2023-04-12T14:14:25;8.87;;;2.43;;
29954;SDS011;68448;51.188;6.868;2023-04-12T14:16:52;2.10;;;1.00;;
29954;SDS011;68448;51.188;6.868;2023-04-12T14:19:20;1.80;;;0.93;;
29954;SDS011;68448;51.188;6.868;2023-04-12T14:21:47;3.07;;;1.13;;
29954;SDS011;68448;51.188;6.868;2023-04-12T14:24:14;6.17;;;1.50;;
29954;SDS011;68448;51.188;6.868;2023-04-12T14:26:42;6.73;;;1.77;;
29954;SDS011;68448;51.188;6.868;2023-04-12T14:29:10;2.30;;;1.17;;
29954;SDS011;68448;51.188;6.868;2023-04-12T14:31:37;4.63;;;1.63;;
29954;SDS011;68448;51.188;6.868;2023-04-12T14:34:05;2.70;;;1.70;;
29954;SDS011;68448;51.188;6.868;2023-04-12T14:36:32;4.30;;;1.50;;
29954;SDS011;68448;51.188;6.868;2023-04-12T14:38:59;5.90;;;1.60;;
29954;SDS011;68448;51.188;6.868;2023-04-12T14:41:26;7.57;;;1.50;;
29954;SDS011;68448;51.188;6.868;2023-04-12T14:43:54;4.90;;;1.70;;
29954;SDS011;68448;51.188;6.868;2023-04-12T14:46:22;4.13;;;1.70;;
29954;SDS011;68448;51.188;6.868;2023-04-12T14:48:49;3.63;;;1.90;;
29954;SDS011;68448;51.188;6.868;2023-04-12T14:51:16;5.03;;;2.27;;
29954;SDS011;68448;51.188;6.868;2023-04-12T14:53:44;4.70;;;1.70;;
29954;SDS011;68448;51.188;6.868;2023-04-12T14:56:18;4.17;;;1.67;;
29954;SDS011;68448;51.188;6.868;2023-04-12T14:58:49;3.43;;;1.40;;